createdAt,value
2022-08-22T03:20:49.064Z,15.70
2022-08-22T04:30:26.568Z,15.40
2022-08-22T04:51:03.164Z,15.20
2022-08-22T04:56:12.348Z,15.30
2022-08-22T05:06:13.777Z,15.40
2022-08-22T05:16:15.781Z,15.60
2022-08-22T05:21:14.095Z,15.50
2022-08-22T05:26:10.544Z,15.60
2022-08-22T05:31:10.017Z,15.60
2022-08-22T06:07:24.789Z,16.20
2022-08-22T06:17:37.568Z,16.30
2022-08-22T06:22:39.478Z,16.40
2022-08-22T06:27:34.087Z,16.40
2022-08-22T06:32:59.126Z,16.60
2022-08-22T06:37:50.129Z,16.70
2022-08-22T06:48:13.129Z,16.90
2022-08-22T06:53:13.895Z,17.00
2022-08-22T06:58:25.734Z,17.10
2022-08-22T07:24:34.035Z,17.60
2022-08-22T07:30:50.406Z,17.70
2022-08-22T07:36:01.669Z,18.00
2022-08-22T08:21:11.174Z,20.00
2022-08-22T08:39:58.947Z,20.60
2022-08-22T08:52:03.759Z,21.00
2022-08-22T08:57:33.133Z,21.20
2022-08-22T09:02:52.116Z,21.40
2022-08-22T09:08:34.299Z,21.50
2022-08-22T09:13:58.785Z,21.60
2022-08-22T09:19:33.125Z,21.80
2022-08-22T09:25:12.708Z,22.00
2022-08-22T09:30:15.445Z,22.20
2022-08-22T09:35:27.642Z,22.40
2022-08-22T09:40:33.052Z,22.30
2022-08-22T09:45:57.488Z,22.60
2022-08-22T09:51:31.751Z,22.70
2022-08-22T09:56:39.683Z,22.80
2022-08-22T10:01:44.721Z,23.00
2022-08-22T10:06:55.772Z,23.10
2022-08-22T10:12:02.277Z,23.10
2022-08-22T10:28:50.183Z,23.50
2022-08-22T10:34:04.248Z,23.70
2022-08-22T10:39:09.506Z,23.80
2022-08-22T10:44:17.649Z,23.70
2022-08-22T10:49:29.509Z,23.80
2022-08-22T10:54:43.184Z,23.90
2022-08-22T10:59:50.000Z,24.10
2022-08-22T11:11:01.637Z,24.50
2022-08-22T11:16:55.024Z,24.60
2022-08-22T11:22:03.811Z,24.60
2022-08-22T11:34:05.763Z,24.80
2022-08-22T12:14:34.239Z,25.00
2022-08-22T12:45:20.762Z,24.80
2022-08-22T13:03:53.892Z,24.70
2022-08-22T13:08:57.443Z,24.80
2022-08-22T13:13:57.304Z,24.80
2022-08-22T13:19:07.706Z,24.60
2022-08-22T13:24:22.687Z,24.50
2022-08-22T13:29:44.529Z,24.50
2022-08-22T13:34:47.380Z,24.40
2022-08-22T13:39:58.306Z,24.30
2022-08-22T13:45:02.655Z,24.30
2022-08-22T13:50:17.445Z,24.20
2022-08-22T13:55:53.514Z,24.20
2022-08-22T14:01:30.606Z,24.20
2022-08-22T14:06:44.041Z,24.20
2022-08-22T14:11:45.346Z,24.20
2022-08-22T14:16:56.760Z,24.30
2022-08-22T14:21:59.606Z,24.30
2022-08-22T14:26:59.565Z,24.40
2022-08-22T14:32:08.703Z,24.50
2022-08-22T14:37:13.091Z,24.50
2022-08-22T14:42:16.874Z,24.50
2022-08-22T14:47:55.644Z,24.50
2022-08-22T14:53:19.035Z,24.40
2022-08-22T14:58:27.774Z,24.40
2022-08-22T15:03:28.998Z,24.40
2022-08-22T15:08:36.182Z,24.50
2022-08-22T15:13:29.828Z,24.50
2022-08-22T15:18:36.687Z,24.50
2022-08-22T15:23:33.220Z,24.50
2022-08-22T15:28:52.502Z,24.50
2022-08-22T15:33:52.690Z,24.50
2022-08-22T15:38:50.010Z,24.50
2022-08-22T15:43:50.207Z,24.30
2022-08-22T15:48:55.251Z,24.20
2022-08-22T15:54:16.266Z,24.20
2022-08-22T15:59:47.863Z,24.20
2022-08-22T16:04:55.080Z,24.20
2022-08-22T16:09:54.147Z,24.10
2022-08-22T16:14:56.804Z,24.20
2022-08-22T16:20:19.346Z,24.20
2022-08-22T16:25:27.705Z,24.20
2022-08-22T16:30:41.317Z,24.20
2022-08-22T16:36:44.744Z,24.10
2022-08-22T16:41:43.295Z,24.10
2022-08-22T16:46:43.116Z,24.10
2022-08-22T16:51:59.253Z,24.10
2022-08-22T16:57:18.932Z,24.10
2022-08-22T17:02:54.915Z,24.00
2022-08-22T17:08:11.807Z,24.00
2022-08-22T17:13:26.280Z,24.00
2022-08-22T17:18:57.757Z,23.80
2022-08-22T17:24:06.176Z,23.80
2022-08-22T17:34:56.766Z,23.70
2022-08-22T18:43:17.883Z,22.40
2022-08-22T18:48:21.125Z,22.30
2022-08-22T18:53:38.964Z,22.20
2022-08-22T18:59:05.694Z,22.00
2022-08-22T19:04:53.400Z,21.80
2022-08-22T19:10:26.730Z,21.80
2022-08-22T19:15:54.497Z,21.70
2022-08-22T19:21:43.961Z,21.50
2022-08-22T19:26:44.364Z,21.30
2022-08-22T19:31:50.553Z,21.10
2022-08-22T19:37:31.922Z,20.90
2022-08-22T19:42:49.935Z,20.70
2022-08-22T19:47:56.558Z,20.50
2022-08-22T19:53:28.702Z,20.30
2022-08-22T19:59:58.071Z,20.30
2022-08-22T20:05:21.430Z,20.20
2022-08-22T20:10:29.596Z,20.20
2022-08-22T20:15:27.610Z,20.00
2022-08-22T20:21:00.088Z,19.80
2022-08-22T20:26:04.049Z,19.80
2022-08-22T20:31:26.174Z,19.90
2022-08-22T20:36:39.329Z,20.00
2022-08-22T20:41:39.366Z,19.80
2022-08-22T20:46:53.192Z,19.70
2022-08-22T20:51:56.635Z,19.60
2022-08-22T20:56:53.965Z,19.30
2022-08-22T21:01:52.809Z,19.30
2022-08-22T21:06:46.304Z,19.30
2022-08-22T21:16:41.679Z,19.00
2022-08-22T21:21:36.355Z,19.00
2022-08-22T21:26:34.052Z,18.80
2022-08-22T21:31:33.589Z,18.90
2022-08-22T21:36:32.618Z,18.80
2022-08-22T21:46:53.945Z,18.70
2022-08-22T21:51:51.723Z,18.70
2022-08-22T21:56:49.337Z,18.30
2022-08-22T22:01:47.228Z,18.40
2022-08-22T22:06:41.038Z,18.50
2022-08-22T22:11:35.780Z,18.40
2022-08-22T22:16:32.582Z,18.50
2022-08-22T22:31:48.241Z,18.40
2022-08-22T22:36:43.989Z,18.30
2022-08-22T22:41:38.774Z,18.20
2022-08-22T22:51:43.920Z,18.00
2022-08-22T22:56:37.287Z,18.00
2022-08-22T23:06:43.389Z,17.90
2022-08-22T23:11:36.807Z,17.80
2022-08-22T23:21:44.716Z,17.90
2022-08-22T23:37:06.497Z,17.60
2022-08-22T23:42:01.619Z,17.40
2022-08-22T23:46:55.648Z,17.20
2022-08-22T23:51:50.661Z,17.30
2022-08-22T23:56:49.198Z,17.10
